sensor_id;sensor_type;location;lat;lon;timestamp;temperature;humidity
46758;DHT22;32509;47.750;-3.396;2022-12-18T00:01:04;4.70;99.90
46758;DHT22;32509;47.750;-3.396;2022-12-18T00:03:34;4.70;99.90
46758;DHT22;32509;47.750;-3.396;2022-12-18T00:06:01;4.70;99.90
46758;DHT22;32509;47.750;-3.396;2022-12-18T00:08:27;4.70;99.90
46758;DHT22;32509;47.750;-3.396;2022-12-18T00:10:53;4.70;99.90
46758;DHT22;32509;47.750;-3.396;2022-12-18T00:13:19;4.70;99.90
46758;DHT22;32509;47.750;-3.396;2022-12-18T00:15:44;4.80;99.90
46758;DHT22;32509;47.750;-3.396;2022-12-18T00:18:10;4.80;99.90
46758;DHT22;32509;47.750;-3.396;2022-12-18T00:20:39;4.80;99.90
46758;DHT22;32509;47.750;-3.396;2022-12-18T00:23:06;4.80;99.90
46758;DHT22;32509;47.750;-3.396;2022-12-18T00:25:36;4.80;99.90
46758;DHT22;32509;47.750;-3.396;2022-12-18T00:28:03;4.80;99.90
46758;DHT22;32509;47.750;-3.396;2022-12-18T00:30:29;4.80;99.90
46758;DHT22;32509;47.750;-3.396;2022-12-18T00:32:55;4.80;99.90
46758;DHT22;32509;47.750;-3.396;2022-12-18T00:35:21;4.80;99.90
46758;DHT22;32509;47.750;-3.396;2022-12-18T00:37:46;4.80;99.90
46758;DHT22;32509;47.750;-3.396;2022-12-18T00:40:12;4.80;99.90
46758;DHT22;32509;47.750;-3.396;2022-12-18T00:42:38;4.80;99.90
46758;DHT22;32509;47.750;-3.396;2022-12-18T00:45:28;4.80;99.90
46758;DHT22;32509;47.750;-3.396;2022-12-18T00:47:54;4.80;99.90
46758;DHT22;32509;47.750;-3.396;2022-12-18T00:50:21;4.90;99.90
46758;DHT22;32509;47.750;-3.396;2022-12-18T00:52:47;4.90;99.90
46758;DHT22;32509;47.750;-3.396;2022-12-18T00:55:13;4.80;99.90
46758;DHT22;32509;47.750;-3.396;2022-12-18T00:57:39;4.90;99.90
46758;DHT22;32509;47.750;-3.396;2022-12-18T01:00:06;4.90;99.90
46758;DHT22;32509;47.750;-3.396;2022-12-18T01:02:32;4.80;99.90
46758;DHT22;32509;47.750;-3.396;2022-12-18T01:04:58;4.90;99.90
46758;DHT22;32509;47.750;-3.396;2022-12-18T01:07:24;4.90;99.90
46758;DHT22;32509;47.750;-3.396;2022-12-18T01:09:50;4.90;99.90
46758;DHT22;32509;47.750;-3.396;2022-12-18T01:12:15;4.90;99.90
46758;DHT22;32509;47.750;-3.396;2022-12-18T01:14:41;4.90;99.90
46758;DHT22;32509;47.750;-3.396;2022-12-18T01:17:07;4.90;99.90
46758;DHT22;32509;47.750;-3.396;2022-12-18T01:19:33;4.90;99.90
46758;DHT22;32509;47.750;-3.396;2022-12-18T01:21:58;4.90;99.90
46758;DHT22;32509;47.750;-3.396;2022-12-18T01:24:24;4.90;99.90
46758;DHT22;32509;47.750;-3.396;2022-12-18T01:26:50;4.90;99.90
46758;DHT22;32509;47.750;-3.396;2022-12-18T01:29:16;4.90;99.90
46758;DHT22;32509;47.750;-3.396;2022-12-18T01:31:41;4.90;99.90
46758;DHT22;32509;47.750;-3.396;2022-12-18T01:34:08;4.90;99.90
46758;DHT22;32509;47.750;-3.396;2022-12-18T01:36:37;4.90;99.90
46758;DHT22;32509;47.750;-3.396;2022-12-18T01:39:10;4.90;99.90
46758;DHT22;32509;47.750;-3.396;2022-12-18T01:41:37;4.90;99.90
46758;DHT22;32509;47.750;-3.396;2022-12-18T01:50:03;4.90;99.90
46758;DHT22;32509;47.750;-3.396;2022-12-18T01:52:31;4.90;99.90
46758;DHT22;32509;47.750;-3.396;2022-12-18T01:54:59;4.90;99.90
46758;DHT22;32509;47.750;-3.396;2022-12-18T01:57:26;4.90;99.90
46758;DHT22;32509;47.750;-3.396;2022-12-18T01:59:55;4.90;99.90
46758;DHT22;32509;47.750;-3.396;2022-12-18T02:02:22;4.90;99.90
46758;DHT22;32509;47.750;-3.396;2022-12-18T02:04:48;4.90;99.90
46758;DHT22;32509;47.750;-3.396;2022-12-18T02:12:48;4.90;99.90
46758;DHT22;32509;47.750;-3.396;2022-12-18T02:15:41;4.90;99.90
46758;DHT22;32509;47.750;-3.396;2022-12-18T02:18:32;4.90;99.90
46758;DHT22;32509;47.750;-3.396;2022-12-18T02:26:48;4.90;99.90
46758;DHT22;32509;47.750;-3.396;2022-12-18T02:29:20;4.90;99.90
46758;DHT22;32509;47.750;-3.396;2022-12-18T02:31:52;4.90;99.90
46758;DHT22;32509;47.750;-3.396;2022-12-18T02:34:23;4.90;99.90
46758;DHT22;32509;47.750;-3.396;2022-12-18T02:36:51;4.90;99.90
46758;DHT22;32509;47.750;-3.396;2022-12-18T02:39:19;4.90;99.90
46758;DHT22;32509;47.750;-3.396;2022-12-18T02:41:46;4.90;99.90
46758;DHT22;32509;47.750;-3.396;2022-12-18T02:44:13;5.00;99.90
46758;DHT22;32509;47.750;-3.396;2022-12-18T02:46:42;5.00;99.90
46758;DHT22;32509;47.750;-3.396;2022-12-18T03:03:47;5.00;99.90
46758;DHT22;32509;47.750;-3.396;2022-12-18T03:06:32;5.00;99.90
46758;DHT22;32509;47.750;-3.396;2022-12-18T03:09:02;5.00;99.90
46758;DHT22;32509;47.750;-3.396;2022-12-18T03:11:32;5.00;99.90
46758;DHT22;32509;47.750;-3.396;2022-12-18T03:14:19;5.00;99.90
46758;DHT22;32509;47.750;-3.396;2022-12-18T03:16:49;5.00;99.90
46758;DHT22;32509;47.750;-3.396;2022-12-18T03:19:21;5.00;99.90
46758;DHT22;32509;47.750;-3.396;2022-12-18T03:21:52;5.00;99.90
46758;DHT22;32509;47.750;-3.396;2022-12-18T03:24:20;5.00;99.90
46758;DHT22;32509;47.750;-3.396;2022-12-18T03:26:49;5.10;99.90
46758;DHT22;32509;47.750;-3.396;2022-12-18T03:30:05;5.00;99.90
46758;DHT22;32509;47.750;-3.396;2022-12-18T03:32:23;5.00;99.90
46758;DHT22;32509;47.750;-3.396;2022-12-18T03:34:51;5.00;99.90
46758;DHT22;32509;47.750;-3.396;2022-12-18T03:37:19;5.00;99.90
46758;DHT22;32509;47.750;-3.396;2022-12-18T03:39:45;5.10;99.90
46758;DHT22;32509;47.750;-3.396;2022-12-18T03:42:33;5.10;99.90
46758;DHT22;32509;47.750;-3.396;2022-12-18T03:45:23;5.10;99.90
46758;DHT22;32509;47.750;-3.396;2022-12-18T03:48:03;5.10;99.90
46758;DHT22;32509;47.750;-3.396;2022-12-18T03:53:58;5.10;99.90
46758;DHT22;32509;47.750;-3.396;2022-12-18T03:56:22;5.10;99.90
46758;DHT22;32509;47.750;-3.396;2022-12-18T03:58:52;5.10;99.90
46758;DHT22;32509;47.750;-3.396;2022-12-18T04:01:20;5.10;99.90
46758;DHT22;32509;47.750;-3.396;2022-12-18T04:03:49;5.10;99.90
46758;DHT22;32509;47.750;-3.396;2022-12-18T04:06:16;5.10;99.90
46758;DHT22;32509;47.750;-3.396;2022-12-18T04:08:42;5.10;99.90
46758;DHT22;32509;47.750;-3.396;2022-12-18T04:11:08;5.10;99.90
46758;DHT22;32509;47.750;-3.396;2022-12-18T04:13:36;5.10;99.90
46758;DHT22;32509;47.750;-3.396;2022-12-18T04:16:02;5.10;99.90
46758;DHT22;32509;47.750;-3.396;2022-12-18T04:18:28;5.10;99.90
46758;DHT22;32509;47.750;-3.396;2022-12-18T04:20:54;5.10;99.90
46758;DHT22;32509;47.750;-3.396;2022-12-18T04:23:20;5.20;99.90
46758;DHT22;32509;47.750;-3.396;2022-12-18T04:25:47;5.20;99.90
46758;DHT22;32509;47.750;-3.396;2022-12-18T04:28:13;5.20;99.90
46758;DHT22;32509;47.750;-3.396;2022-12-18T04:30:39;5.20;99.90
46758;DHT22;32509;47.750;-3.396;2022-12-18T04:33:12;5.20;99.90
46758;DHT22;32509;47.750;-3.396;2022-12-18T04:35:39;5.20;99.90
46758;DHT22;32509;47.750;-3.396;2022-12-18T04:38:06;5.20;99.90
46758;DHT22;32509;47.750;-3.396;2022-12-18T04:40:34;5.20;99.90
46758;DHT22;32509;47.750;-3.396;2022-12-18T04:43:00;5.20;99.90
46758;DHT22;32509;47.750;-3.396;2022-12-18T04:45:25;5.20;99.90
46758;DHT22;32509;47.750;-3.396;2022-12-18T04:47:51;5.20;99.90
46758;DHT22;32509;47.750;-3.396;2022-12-18T04:50:17;5.20;99.90
46758;DHT22;32509;47.750;-3.396;2022-12-18T04:52:43;5.20;99.90
46758;DHT22;32509;47.750;-3.396;2022-12-18T04:55:08;5.20;99.90
46758;DHT22;32509;47.750;-3.396;2022-12-18T04:57:34;5.30;99.90
46758;DHT22;32509;47.750;-3.396;2022-12-18T05:00:00;5.30;99.90
46758;DHT22;32509;47.750;-3.396;2022-12-18T05:02:26;5.30;99.90
46758;DHT22;32509;47.750;-3.396;2022-12-18T05:04:52;5.30;99.90
46758;DHT22;32509;47.750;-3.396;2022-12-18T05:07:18;5.30;99.90
46758;DHT22;32509;47.750;-3.396;2022-12-18T05:09:44;5.30;99.90
46758;DHT22;32509;47.750;-3.396;2022-12-18T05:12:09;5.30;99.90
46758;DHT22;32509;47.750;-3.396;2022-12-18T05:14:35;5.30;99.90
46758;DHT22;32509;47.750;-3.396;2022-12-18T05:17:01;5.20;99.90
46758;DHT22;32509;47.750;-3.396;2022-12-18T05:19:27;5.30;99.90
46758;DHT22;32509;47.750;-3.396;2022-12-18T05:21:52;5.30;99.90
46758;DHT22;32509;47.750;-3.396;2022-12-18T05:24:18;5.30;99.90
46758;DHT22;32509;47.750;-3.396;2022-12-18T05:26:44;5.30;99.90
46758;DHT22;32509;47.750;-3.396;2022-12-18T05:29:10;5.30;99.90
46758;DHT22;32509;47.750;-3.396;2022-12-18T05:31:38;5.30;99.90
46758;DHT22;32509;47.750;-3.396;2022-12-18T05:34:05;5.30;99.90
46758;DHT22;32509;47.750;-3.396;2022-12-18T05:36:30;5.30;99.90
46758;DHT22;32509;47.750;-3.396;2022-12-18T05:38:56;5.40;99.90
46758;DHT22;32509;47.750;-3.396;2022-12-18T05:41:22;5.40;99.90
46758;DHT22;32509;47.750;-3.396;2022-12-18T05:43:48;5.40;99.90
46758;DHT22;32509;47.750;-3.396;2022-12-18T05:46:16;5.40;99.90
46758;DHT22;32509;47.750;-3.396;2022-12-18T05:48:43;5.40;99.90
46758;DHT22;32509;47.750;-3.396;2022-12-18T05:51:12;5.40;99.90
46758;DHT22;32509;47.750;-3.396;2022-12-18T05:53:40;5.40;99.90
46758;DHT22;32509;47.750;-3.396;2022-12-18T05:56:10;5.50;99.90
46758;DHT22;32509;47.750;-3.396;2022-12-18T05:58:36;5.50;99.90
46758;DHT22;32509;47.750;-3.396;2022-12-18T06:01:11;5.50;99.90
46758;DHT22;32509;47.750;-3.396;2022-12-18T06:03:37;5.50;99.90
46758;DHT22;32509;47.750;-3.396;2022-12-18T06:06:03;5.50;99.90
46758;DHT22;32509;47.750;-3.396;2022-12-18T06:08:29;5.60;99.90
46758;DHT22;32509;47.750;-3.396;2022-12-18T06:10:55;5.60;99.90
46758;DHT22;32509;47.750;-3.396;2022-12-18T06:13:21;5.60;99.90
46758;DHT22;32509;47.750;-3.396;2022-12-18T06:15:46;5.60;99.90
46758;DHT22;32509;47.750;-3.396;2022-12-18T06:18:12;5.60;99.90
46758;DHT22;32509;47.750;-3.396;2022-12-18T06:20:38;5.70;99.90
46758;DHT22;32509;47.750;-3.396;2022-12-18T06:23:05;5.60;99.90
46758;DHT22;32509;47.750;-3.396;2022-12-18T06:25:32;5.60;99.90
46758;DHT22;32509;47.750;-3.396;2022-12-18T06:27:58;5.70;99.90
46758;DHT22;32509;47.750;-3.396;2022-12-18T06:30:24;5.70;99.90
46758;DHT22;32509;47.750;-3.396;2022-12-18T06:32:50;5.70;99.90
46758;DHT22;32509;47.750;-3.396;2022-12-18T06:35:16;5.70;99.90
46758;DHT22;32509;47.750;-3.396;2022-12-18T06:37:42;5.70;99.90
46758;DHT22;32509;47.750;-3.396;2022-12-18T06:40:08;5.70;99.90
46758;DHT22;32509;47.750;-3.396;2022-12-18T06:42:34;5.80;99.90
46758;DHT22;32509;47.750;-3.396;2022-12-18T06:45:00;5.70;99.90
46758;DHT22;32509;47.750;-3.396;2022-12-18T06:47:26;5.80;99.90
46758;DHT22;32509;47.750;-3.396;2022-12-18T06:49:51;5.80;99.90
46758;DHT22;32509;47.750;-3.396;2022-12-18T06:52:17;5.80;99.90
46758;DHT22;32509;47.750;-3.396;2022-12-18T06:54:43;5.80;99.90
46758;DHT22;32509;47.750;-3.396;2022-12-18T06:57:08;5.90;99.90
46758;DHT22;32509;47.750;-3.396;2022-12-18T06:59:34;5.90;99.90
46758;DHT22;32509;47.750;-3.396;2022-12-18T07:02:00;5.90;99.90
46758;DHT22;32509;47.750;-3.396;2022-12-18T07:04:29;5.90;99.90
46758;DHT22;32509;47.750;-3.396;2022-12-18T07:06:55;5.90;99.90
46758;DHT22;32509;47.750;-3.396;2022-12-18T07:09:21;5.90;99.90
46758;DHT22;32509;47.750;-3.396;2022-12-18T07:11:47;5.90;99.90
46758;DHT22;32509;47.750;-3.396;2022-12-18T07:14:13;6.00;99.90
46758;DHT22;32509;47.750;-3.396;2022-12-18T07:16:38;6.00;99.90
46758;DHT22;32509;47.750;-3.396;2022-12-18T07:19:04;6.00;99.90
46758;DHT22;32509;47.750;-3.396;2022-12-18T07:21:30;6.00;99.90
46758;DHT22;32509;47.750;-3.396;2022-12-18T07:23:56;6.00;99.90
46758;DHT22;32509;47.750;-3.396;2022-12-18T07:26:22;6.10;99.90
46758;DHT22;32509;47.750;-3.396;2022-12-18T07:28:48;6.10;99.90
46758;DHT22;32509;47.750;-3.396;2022-12-18T07:31:20;6.10;99.90
46758;DHT22;32509;47.750;-3.396;2022-12-18T07:33:46;6.10;99.90
46758;DHT22;32509;47.750;-3.396;2022-12-18T07:36:12;6.20;99.90
46758;DHT22;32509;47.750;-3.396;2022-12-18T07:38:39;6.10;99.90
46758;DHT22;32509;47.750;-3.396;2022-12-18T07:41:12;6.10;99.90
46758;DHT22;32509;47.750;-3.396;2022-12-18T07:43:39;6.10;99.90
46758;DHT22;32509;47.750;-3.396;2022-12-18T07:46:06;6.20;99.90
46758;DHT22;32509;47.750;-3.396;2022-12-18T07:48:32;6.20;99.90
46758;DHT22;32509;47.750;-3.396;2022-12-18T07:51:01;6.20;99.90
46758;DHT22;32509;47.750;-3.396;2022-12-18T07:53:28;6.20;99.90
46758;DHT22;32509;47.750;-3.396;2022-12-18T07:55:58;6.20;99.90
46758;DHT22;32509;47.750;-3.396;2022-12-18T07:58:24;6.20;99.90
46758;DHT22;32509;47.750;-3.396;2022-12-18T08:00:50;6.20;99.90
46758;DHT22;32509;47.750;-3.396;2022-12-18T08:03:16;6.30;99.90
46758;DHT22;32509;47.750;-3.396;2022-12-18T08:05:42;6.30;99.90
46758;DHT22;32509;47.750;-3.396;2022-12-18T08:08:07;6.30;99.90
46758;DHT22;32509;47.750;-3.396;2022-12-18T08:10:33;6.30;99.90
46758;DHT22;32509;47.750;-3.396;2022-12-18T08:12:59;6.30;99.90
46758;DHT22;32509;47.750;-3.396;2022-12-18T08:15:25;6.40;99.90
46758;DHT22;32509;47.750;-3.396;2022-12-18T08:17:50;6.40;99.90
46758;DHT22;32509;47.750;-3.396;2022-12-18T08:20:16;6.40;99.90
46758;DHT22;32509;47.750;-3.396;2022-12-18T08:22:44;6.40;99.90
46758;DHT22;32509;47.750;-3.396;2022-12-18T08:25:10;6.40;99.90
46758;DHT22;32509;47.750;-3.396;2022-12-18T08:27:36;6.50;99.90
46758;DHT22;32509;47.750;-3.396;2022-12-18T08:30:02;6.50;99.90
46758;DHT22;32509;47.750;-3.396;2022-12-18T08:32:28;6.50;99.90
46758;DHT22;32509;47.750;-3.396;2022-12-18T08:34:54;6.50;99.90
46758;DHT22;32509;47.750;-3.396;2022-12-18T08:37:20;6.50;99.90
46758;DHT22;32509;47.750;-3.396;2022-12-18T08:39:46;6.60;99.90
46758;DHT22;32509;47.750;-3.396;2022-12-18T08:42:11;6.60;99.90
46758;DHT22;32509;47.750;-3.396;2022-12-18T08:44:55;6.60;99.90
46758;DHT22;32509;47.750;-3.396;2022-12-18T08:47:21;6.60;99.90
46758;DHT22;32509;47.750;-3.396;2022-12-18T08:49:47;6.70;99.90
46758;DHT22;32509;47.750;-3.396;2022-12-18T08:52:14;6.70;99.90
46758;DHT22;32509;47.750;-3.396;2022-12-18T08:54:40;6.70;99.90
46758;DHT22;32509;47.750;-3.396;2022-12-18T08:57:05;6.70;99.90
46758;DHT22;32509;47.750;-3.396;2022-12-18T08:59:32;6.70;99.90
46758;DHT22;32509;47.750;-3.396;2022-12-18T09:01:57;6.70;99.90
46758;DHT22;32509;47.750;-3.396;2022-12-18T09:04:23;6.80;99.90
46758;DHT22;32509;47.750;-3.396;2022-12-18T09:06:49;6.80;99.90
46758;DHT22;32509;47.750;-3.396;2022-12-18T09:09:15;6.80;99.90
46758;DHT22;32509;47.750;-3.396;2022-12-18T09:11:41;6.90;99.90
46758;DHT22;32509;47.750;-3.396;2022-12-18T09:14:07;6.90;99.90
46758;DHT22;32509;47.750;-3.396;2022-12-18T09:16:33;7.00;99.90
46758;DHT22;32509;47.750;-3.396;2022-12-18T09:19:01;7.00;99.90
46758;DHT22;32509;47.750;-3.396;2022-12-18T09:21:29;7.00;99.90
46758;DHT22;32509;47.750;-3.396;2022-12-18T09:23:56;7.00;99.90
46758;DHT22;32509;47.750;-3.396;2022-12-18T09:26:23;7.00;99.90
46758;DHT22;32509;47.750;-3.396;2022-12-18T09:28:49;7.10;99.90
46758;DHT22;32509;47.750;-3.396;2022-12-18T09:31:17;7.10;99.90
46758;DHT22;32509;47.750;-3.396;2022-12-18T09:33:43;7.10;99.90
46758;DHT22;32509;47.750;-3.396;2022-12-18T09:36:12;7.20;99.90
46758;DHT22;32509;47.750;-3.396;2022-12-18T09:38:38;7.20;99.90
46758;DHT22;32509;47.750;-3.396;2022-12-18T09:43:55;7.20;99.90
46758;DHT22;32509;47.750;-3.396;2022-12-18T09:46:28;7.30;99.90
46758;DHT22;32509;47.750;-3.396;2022-12-18T09:48:59;7.30;99.90
46758;DHT22;32509;47.750;-3.396;2022-12-18T09:51:47;7.30;99.90
46758;DHT22;32509;47.750;-3.396;2022-12-18T09:54:20;7.40;99.90
46758;DHT22;32509;47.750;-3.396;2022-12-18T09:56:47;7.40;99.90
46758;DHT22;32509;47.750;-3.396;2022-12-18T09:59:24;7.50;99.90
46758;DHT22;32509;47.750;-3.396;2022-12-18T10:01:50;7.50;99.90
46758;DHT22;32509;47.750;-3.396;2022-12-18T10:04:16;7.60;99.90
46758;DHT22;32509;47.750;-3.396;2022-12-18T10:06:58;7.60;99.90
46758;DHT22;32509;47.750;-3.396;2022-12-18T10:09:51;7.60;99.90
46758;DHT22;32509;47.750;-3.396;2022-12-18T10:21:20;7.80;99.90
46758;DHT22;32509;47.750;-3.396;2022-12-18T10:26:27;7.80;99.90
46758;DHT22;32509;47.750;-3.396;2022-12-18T10:28:53;7.90;99.90
46758;DHT22;32509;47.750;-3.396;2022-12-18T10:31:23;7.90;99.90
46758;DHT22;32509;47.750;-3.396;2022-12-18T10:33:49;7.90;99.90
46758;DHT22;32509;47.750;-3.396;2022-12-18T10:36:15;8.00;99.90
46758;DHT22;32509;47.750;-3.396;2022-12-18T10:38:41;8.00;99.90
46758;DHT22;32509;47.750;-3.396;2022-12-18T10:43:47;8.10;99.90
46758;DHT22;32509;47.750;-3.396;2022-12-18T10:46:19;8.10;99.90
46758;DHT22;32509;47.750;-3.396;2022-12-18T10:56:26;8.20;99.90
46758;DHT22;32509;47.750;-3.396;2022-12-18T11:01:28;8.20;99.90
46758;DHT22;32509;47.750;-3.396;2022-12-18T11:06:24;8.30;99.90
46758;DHT22;32509;47.750;-3.396;2022-12-18T11:09:21;8.30;99.90
46758;DHT22;32509;47.750;-3.396;2022-12-18T11:11:53;8.20;99.90
46758;DHT22;32509;47.750;-3.396;2022-12-18T11:14:28;8.20;99.90
46758;DHT22;32509;47.750;-3.396;2022-12-18T11:16:55;8.20;99.90
46758;DHT22;32509;47.750;-3.396;2022-12-18T11:19:30;8.20;99.90
46758;DHT22;32509;47.750;-3.396;2022-12-18T11:21:58;8.20;99.90
46758;DHT22;32509;47.750;-3.396;2022-12-18T11:24:35;8.20;99.90
46758;DHT22;32509;47.750;-3.396;2022-12-18T11:27:03;8.30;99.90
46758;DHT22;32509;47.750;-3.396;2022-12-18T11:29:38;8.30;99.90
46758;DHT22;32509;47.750;-3.396;2022-12-18T11:32:40;8.30;99.90
46758;DHT22;32509;47.750;-3.396;2022-12-18T11:35:32;8.30;99.90
46758;DHT22;32509;47.750;-3.396;2022-12-18T11:38:23;8.30;99.90
46758;DHT22;32509;47.750;-3.396;2022-12-18T11:40:58;8.30;99.90
46758;DHT22;32509;47.750;-3.396;2022-12-18T11:43:53;8.30;99.90
46758;DHT22;32509;47.750;-3.396;2022-12-18T11:46:34;8.40;99.90
46758;DHT22;32509;47.750;-3.396;2022-12-18T11:49:24;8.40;99.90
46758;DHT22;32509;47.750;-3.396;2022-12-18T11:54:17;8.40;99.90
46758;DHT22;32509;47.750;-3.396;2022-12-18T11:59:56;8.50;99.90
46758;DHT22;32509;47.750;-3.396;2022-12-18T12:16:17;8.60;99.90
46758;DHT22;32509;47.750;-3.396;2022-12-18T12:18:59;8.60;99.90
46758;DHT22;32509;47.750;-3.396;2022-12-18T12:21:39;8.70;99.90
46758;DHT22;32509;47.750;-3.396;2022-12-18T12:35:08;8.80;99.90
46758;DHT22;32509;47.750;-3.396;2022-12-18T12:40:18;8.80;99.90
46758;DHT22;32509;47.750;-3.396;2022-12-18T12:42:52;8.90;99.90
46758;DHT22;32509;47.750;-3.396;2022-12-18T12:50:52;8.90;99.90
46758;DHT22;32509;47.750;-3.396;2022-12-18T12:53:26;8.90;99.90
46758;DHT22;32509;47.750;-3.396;2022-12-18T12:55:55;8.90;99.90
46758;DHT22;32509;47.750;-3.396;2022-12-18T13:06:42;8.90;99.90
46758;DHT22;32509;47.750;-3.396;2022-12-18T13:09:09;8.90;99.90
46758;DHT22;32509;47.750;-3.396;2022-12-18T13:11:43;8.90;99.90
46758;DHT22;32509;47.750;-3.396;2022-12-18T13:17:24;9.00;99.90
46758;DHT22;32509;47.750;-3.396;2022-12-18T13:20:10;9.00;99.90
46758;DHT22;32509;47.750;-3.396;2022-12-18T13:22:49;9.10;99.90
46758;DHT22;32509;47.750;-3.396;2022-12-18T13:28:15;9.10;99.90
46758;DHT22;32509;47.750;-3.396;2022-12-18T13:31:01;9.10;99.90
46758;DHT22;32509;47.750;-3.396;2022-12-18T13:33:37;9.10;99.90
46758;DHT22;32509;47.750;-3.396;2022-12-18T13:36:33;9.10;99.90
46758;DHT22;32509;47.750;-3.396;2022-12-18T13:39:22;9.10;99.90
46758;DHT22;32509;47.750;-3.396;2022-12-18T13:41:53;9.10;99.90
46758;DHT22;32509;47.750;-3.396;2022-12-18T13:44:56;9.10;99.90
46758;DHT22;32509;47.750;-3.396;2022-12-18T13:47:32;9.10;99.90
46758;DHT22;32509;47.750;-3.396;2022-12-18T13:49:58;9.20;99.90
46758;DHT22;32509;47.750;-3.396;2022-12-18T13:52:36;9.20;99.90
46758;DHT22;32509;47.750;-3.396;2022-12-18T13:55:07;9.20;99.90
46758;DHT22;32509;47.750;-3.396;2022-12-18T13:57:35;9.20;99.90
46758;DHT22;32509;47.750;-3.396;2022-12-18T14:02:48;9.20;99.90
46758;DHT22;32509;47.750;-3.396;2022-12-18T14:05:35;9.20;99.90
46758;DHT22;32509;47.750;-3.396;2022-12-18T14:08:05;9.30;99.90
46758;DHT22;32509;47.750;-3.396;2022-12-18T14:10:33;9.20;99.90
46758;DHT22;32509;47.750;-3.396;2022-12-18T14:13:05;9.30;99.90
46758;DHT22;32509;47.750;-3.396;2022-12-18T14:15:33;9.30;99.90
46758;DHT22;32509;47.750;-3.396;2022-12-18T14:20:43;9.30;99.90
46758;DHT22;32509;47.750;-3.396;2022-12-18T14:23:39;9.30;99.90
46758;DHT22;32509;47.750;-3.396;2022-12-18T14:26:25;9.30;99.90
46758;DHT22;32509;47.750;-3.396;2022-12-18T14:28:53;9.30;99.90
46758;DHT22;32509;47.750;-3.396;2022-12-18T14:31:30;9.30;99.90
46758;DHT22;32509;47.750;-3.396;2022-12-18T14:33:57;9.30;99.90
46758;DHT22;32509;47.750;-3.396;2022-12-18T14:36:27;9.30;99.90
46758;DHT22;32509;47.750;-3.396;2022-12-18T14:38:56;9.30;99.90
46758;DHT22;32509;47.750;-3.396;2022-12-18T14:41:23;9.30;99.90
46758;DHT22;32509;47.750;-3.396;2022-12-18T14:43:51;9.30;99.90
46758;DHT22;32509;47.750;-3.396;2022-12-18T14:46:30;9.30;99.90
46758;DHT22;32509;47.750;-3.396;2022-12-18T14:48:59;9.30;99.90
46758;DHT22;32509;47.750;-3.396;2022-12-18T14:51:28;9.40;99.90
46758;DHT22;32509;47.750;-3.396;2022-12-18T14:54:03;9.40;99.90
46758;DHT22;32509;47.750;-3.396;2022-12-18T14:56:34;9.30;99.90
46758;DHT22;32509;47.750;-3.396;2022-12-18T15:01:34;9.40;99.90
46758;DHT22;32509;47.750;-3.396;2022-12-18T15:04:03;9.40;99.90
46758;DHT22;32509;47.750;-3.396;2022-12-18T15:08:56;9.40;99.90
46758;DHT22;32509;47.750;-3.396;2022-12-18T15:11:33;9.40;99.90
46758;DHT22;32509;47.750;-3.396;2022-12-18T15:14:21;9.40;99.90
46758;DHT22;32509;47.750;-3.396;2022-12-18T15:16:53;9.40;99.90
46758;DHT22;32509;47.750;-3.396;2022-12-18T15:19:21;9.40;99.90
46758;DHT22;32509;47.750;-3.396;2022-12-18T15:21:48;9.40;99.90
46758;DHT22;32509;47.750;-3.396;2022-12-18T15:24:24;9.40;99.90
46758;DHT22;32509;47.750;-3.396;2022-12-18T15:26:51;9.40;99.90
46758;DHT22;32509;47.750;-3.396;2022-12-18T15:29:20;9.40;99.90
46758;DHT22;32509;47.750;-3.396;2022-12-18T15:31:58;9.40;99.90
46758;DHT22;32509;47.750;-3.396;2022-12-18T15:34:25;9.40;99.90
46758;DHT22;32509;47.750;-3.396;2022-12-18T15:36:51;9.40;99.90
46758;DHT22;32509;47.750;-3.396;2022-12-18T15:39:17;9.50;99.90
46758;DHT22;32509;47.750;-3.396;2022-12-18T15:41:43;9.50;99.90
46758;DHT22;32509;47.750;-3.396;2022-12-18T15:44:29;9.50;99.90
46758;DHT22;32509;47.750;-3.396;2022-12-18T15:46:56;9.50;99.90
46758;DHT22;32509;47.750;-3.396;2022-12-18T15:49:22;9.50;99.90
46758;DHT22;32509;47.750;-3.396;2022-12-18T15:51:53;9.50;99.90
46758;DHT22;32509;47.750;-3.396;2022-12-18T15:54:20;9.50;99.90
46758;DHT22;32509;47.750;-3.396;2022-12-18T15:57:11;9.60;99.90
46758;DHT22;32509;47.750;-3.396;2022-12-18T15:59:49;9.50;99.90
46758;DHT22;32509;47.750;-3.396;2022-12-18T16:02:17;9.50;99.90
46758;DHT22;32509;47.750;-3.396;2022-12-18T16:04:43;9.50;99.90
46758;DHT22;32509;47.750;-3.396;2022-12-18T16:07:09;9.50;99.90
46758;DHT22;32509;47.750;-3.396;2022-12-18T16:09:35;9.50;99.90
46758;DHT22;32509;47.750;-3.396;2022-12-18T16:12:01;9.50;99.90
46758;DHT22;32509;47.750;-3.396;2022-12-18T16:14:29;9.50;99.90
46758;DHT22;32509;47.750;-3.396;2022-12-18T16:16:57;9.50;99.90
46758;DHT22;32509;47.750;-3.396;2022-12-18T16:19:23;9.60;99.90
46758;DHT22;32509;47.750;-3.396;2022-12-18T16:21:51;9.50;99.90
46758;DHT22;32509;47.750;-3.396;2022-12-18T16:24:20;9.50;99.90
46758;DHT22;32509;47.750;-3.396;2022-12-18T16:26:47;9.60;99.90
46758;DHT22;32509;47.750;-3.396;2022-12-18T16:29:14;9.60;99.90
46758;DHT22;32509;47.750;-3.396;2022-12-18T16:31:40;9.60;99.90
46758;DHT22;32509;47.750;-3.396;2022-12-18T16:36:52;9.60;99.90
46758;DHT22;32509;47.750;-3.396;2022-12-18T16:39:19;9.60;99.90
46758;DHT22;32509;47.750;-3.396;2022-12-18T16:41:45;9.60;99.90
46758;DHT22;32509;47.750;-3.396;2022-12-18T16:44:11;9.70;99.90
46758;DHT22;32509;47.750;-3.396;2022-12-18T16:46:38;9.60;99.90
46758;DHT22;32509;47.750;-3.396;2022-12-18T16:49:04;9.70;99.90
46758;DHT22;32509;47.750;-3.396;2022-12-18T16:51:30;9.70;99.90
46758;DHT22;32509;47.750;-3.396;2022-12-18T16:53:56;9.70;99.90
46758;DHT22;32509;47.750;-3.396;2022-12-18T16:56:22;9.70;99.90
46758;DHT22;32509;47.750;-3.396;2022-12-18T16:58:55;9.70;99.90
46758;DHT22;32509;47.750;-3.396;2022-12-18T17:01:21;9.70;99.90
46758;DHT22;32509;47.750;-3.396;2022-12-18T17:03:55;9.80;99.90
46758;DHT22;32509;47.750;-3.396;2022-12-18T17:06:22;9.70;99.90
46758;DHT22;32509;47.750;-3.396;2022-12-18T17:08:48;9.70;99.90
46758;DHT22;32509;47.750;-3.396;2022-12-18T17:11:14;9.80;99.90
46758;DHT22;32509;47.750;-3.396;2022-12-18T17:13:40;9.80;99.90
46758;DHT22;32509;47.750;-3.396;2022-12-18T17:16:06;9.80;99.90
46758;DHT22;32509;47.750;-3.396;2022-12-18T17:18:33;9.80;99.90
46758;DHT22;32509;47.750;-3.396;2022-12-18T17:21:03;9.80;99.90
46758;DHT22;32509;47.750;-3.396;2022-12-18T17:23:29;9.80;99.90
46758;DHT22;32509;47.750;-3.396;2022-12-18T17:25:56;9.80;99.90
46758;DHT22;32509;47.750;-3.396;2022-12-18T17:28:26;9.90;99.90
46758;DHT22;32509;47.750;-3.396;2022-12-18T17:30:53;9.80;99.90
46758;DHT22;32509;47.750;-3.396;2022-12-18T17:33:19;9.90;99.90
46758;DHT22;32509;47.750;-3.396;2022-12-18T17:35:45;9.90;99.90
46758;DHT22;32509;47.750;-3.396;2022-12-18T17:38:11;9.90;99.90
46758;DHT22;32509;47.750;-3.396;2022-12-18T17:40:37;9.90;99.90
46758;DHT22;32509;47.750;-3.396;2022-12-18T17:43:06;9.90;99.90
46758;DHT22;32509;47.750;-3.396;2022-12-18T17:45:34;9.90;99.90
46758;DHT22;32509;47.750;-3.396;2022-12-18T17:48:01;9.90;99.90
46758;DHT22;32509;47.750;-3.396;2022-12-18T17:50:27;9.90;99.90
46758;DHT22;32509;47.750;-3.396;2022-12-18T17:52:56;9.90;99.90
46758;DHT22;32509;47.750;-3.396;2022-12-18T17:55:23;10.00;99.90